Time;durP1;ratioP1;P1;durP2;ratioP2;P2;SDS_P1;SDS_P2;PMS_P1;PMS_P2;Temp;Humidity;BMP_temperature;BMP_pressure;BME280_temperature;BME280_humidity;BME280_pressure;Samples;Min_cycle;Max_cycle;Signal;HPM_P1;HPM_P2
2021/06/06 00:01:17;;;;;;;43.40;30.05;;;17.80;99.90;;;;;;5017224;28;20034;-75
2021/06/06 00:03:47;;;;;;;47.65;29.33;;;17.80;99.90;;;;;;5014793;28;20027;-73
2021/06/06 00:06:39;;;;;;;43.90;30.48;;;17.80;99.90;;;;;;5019129;28;20117;-76
2021/06/06 00:09:09;;;;;;;50.28;33.50;;;17.80;99.90;;;;;;5015141;28;20076;-74
2021/06/06 00:11:39;;;;;;;49.30;31.40;;;17.80;99.90;;;;;;5020822;28;20148;-74
2021/06/06 00:14:09;;;;;;;45.63;32.17;;;17.80;99.90;;;;;;5016921;28;20061;-76
2021/06/06 00:16:45;;;;;;;46.88;31.95;;;17.80;99.90;;;;;;5019478;28;20321;-76
2021/06/06 00:19:11;;;;;;;47.33;32.90;;;17.70;99.90;;;;;;5020514;28;20037;-74
2021/06/06 00:21:39;;;;;;;37.92;27.00;;;17.80;99.90;;;;;;5017366;28;20066;-75
2021/06/06 00:24:10;;;;;;;39.22;29.23;;;17.60;99.90;;;;;;5022410;28;20111;-76
2021/06/06 00:26:36;;;;;;;41.33;29.23;;;17.60;99.90;;;;;;5019588;28;20510;-76
2021/06/06 00:29:03;;;;;;;43.17;28.50;;;17.70;99.90;;;;;;5015711;28;20044;-76
2021/06/06 00:31:28;;;;;;;39.05;30.38;;;17.70;99.90;;;;;;5014923;28;20099;-76
2021/06/06 00:33:54;;;;;;;39.88;28.52;;;17.70;99.90;;;;;;5016742;28;20072;-76
2021/06/06 00:36:21;;;;;;;38.15;28.45;;;17.60;99.90;;;;;;5020019;28;20493;-75
2021/06/06 00:38:47;;;;;;;40.70;28.05;;;17.70;99.90;;;;;;5023221;28;20022;-76
2021/06/06 00:41:14;;;;;;;43.70;32.35;;;17.70;99.90;;;;;;5019877;28;20165;-74
2021/06/06 00:43:40;;;;;;;42.70;30.92;;;17.70;99.90;;;;;;5022737;28;20577;-76
2021/06/06 00:46:08;;;;;;;47.55;32.50;;;17.60;99.90;;;;;;5020459;28;20116;-73
2021/06/06 00:48:35;;;;;;;49.38;32.85;;;17.70;99.90;;;;;;5020424;28;20385;-76
2021/06/06 00:51:24;;;;;;;49.45;37.05;;;17.60;99.90;;;;;;5013436;28;20017;-75
2021/06/06 00:53:55;;;;;;;47.92;34.17;;;17.60;99.90;;;;;;5002756;28;20500;-76
2021/06/06 00:56:26;;;;;;;45.00;31.95;;;17.60;99.90;;;;;;5021760;28;20125;-76
2021/06/06 00:58:54;;;;;;;43.55;31.27;;;17.50;99.90;;;;;;5017814;28;20079;-76
2021/06/06 01:01:23;;;;;;;39.35;29.65;;;17.60;99.90;;;;;;5014144;28;20030;-76
2021/06/06 01:03:50;;;;;;;41.25;29.80;;;17.50;99.90;;;;;;5019003;28;20022;-76
2021/06/06 01:06:23;;;;;;;41.08;27.60;;;17.60;99.90;;;;;;5016777;28;20118;-74
2021/06/06 01:08:48;;;;;;;40.50;28.48;;;17.60;99.90;;;;;;5019826;28;20026;-75
2021/06/06 01:11:31;;;;;;;39.08;27.70;;;17.60;99.90;;;;;;5014001;28;20095;-74
2021/06/06 01:14:10;;;;;;;39.50;27.77;;;17.60;99.90;;;;;;5015045;28;20018;-73
2021/06/06 01:16:45;;;;;;;41.25;30.02;;;17.60;99.90;;;;;;5014068;28;20080;-76
2021/06/06 01:19:30;;;;;;;46.03;31.75;;;17.60;99.90;;;;;;5012402;28;20214;-76
2021/06/06 01:22:04;;;;;;;44.35;31.55;;;17.70;99.90;;;;;;5011042;28;20066;-75
2021/06/06 01:25:18;;;;;;;51.08;33.50;;;17.70;99.90;;;;;;5012287;28;20033;-76
2021/06/06 01:28:02;;;;;;;48.83;33.80;;;17.70;99.90;;;;;;5009114;28;20046;-76
2021/06/06 01:30:32;;;;;;;51.97;35.38;;;17.80;99.90;;;;;;5015383;28;20025;-75
2021/06/06 01:33:03;;;;;;;56.47;37.65;;;17.70;99.90;;;;;;5018827;28;20028;-75
2021/06/06 01:35:34;;;;;;;56.13;39.25;;;17.70;99.90;;;;;;5016918;28;20427;-75
2021/06/06 01:38:04;;;;;;;60.75;41.22;;;17.80;99.90;;;;;;5019316;28;20356;-72
2021/06/06 01:40:33;;;;;;;58.83;39.90;;;17.80;99.90;;;;;;5015191;28;20431;-75
2021/06/06 01:43:04;;;;;;;65.20;43.10;;;17.80;99.90;;;;;;5018447;28;20030;-75
2021/06/06 01:45:37;;;;;;;69.88;43.97;;;17.80;99.90;;;;;;5017945;28;20087;-75
2021/06/06 01:48:07;;;;;;;68.35;43.00;;;17.60;99.90;;;;;;5022156;28;20028;-75
2021/06/06 01:50:38;;;;;;;73.18;46.22;;;17.60;99.90;;;;;;5024597;28;20036;-75
2021/06/06 01:53:07;;;;;;;72.32;44.72;;;17.60;99.90;;;;;;5019881;28;20026;-75
2021/06/06 01:55:36;;;;;;;67.70;44.88;;;17.60;99.90;;;;;;5027061;28;20072;-75
2021/06/06 01:58:04;;;;;;;74.45;46.72;;;17.50;99.90;;;;;;5024414;28;20087;-73
2021/06/06 02:00:40;;;;;;;73.28;47.70;;;17.50;99.90;;;;;;5017512;28;20033;-75
2021/06/06 02:03:07;;;;;;;84.20;45.58;;;17.50;99.90;;;;;;5019656;28;20101;-72
2021/06/06 02:05:33;;;;;;;73.13;45.85;;;17.40;99.90;;;;;;5018111;28;20018;-73
2021/06/06 02:08:00;;;;;;;78.78;46.83;;;17.40;99.90;;;;;;5019468;28;20032;-73
2021/06/06 02:10:31;;;;;;;78.38;45.92;;;17.40;99.90;;;;;;5018419;28;20375;-73
2021/06/06 02:13:25;;;;;;;81.85;48.25;;;17.50;99.90;;;;;;5014930;28;20401;-75
2021/06/06 02:15:55;;;;;;;87.75;47.97;;;17.40;99.90;;;;;;5016538;28;20033;-75
2021/06/06 02:18:23;;;;;;;80.43;47.60;;;17.40;99.90;;;;;;5018077;28;20104;-74
2021/06/06 02:20:50;;;;;;;76.28;46.25;;;17.30;99.90;;;;;;5025560;28;20053;-74
2021/06/06 02:23:26;;;;;;;83.25;49.08;;;17.20;99.90;;;;;;5015159;28;20024;-75
2021/06/06 02:25:58;;;;;;;77.63;48.28;;;17.30;99.90;;;;;;5018016;28;20022;-75
2021/06/06 02:28:33;;;;;;;75.43;44.05;;;17.30;99.90;;;;;;5024338;28;20104;-74
2021/06/06 02:31:20;;;;;;;67.30;43.88;;;17.20;99.90;;;;;;5019076;28;20034;-74
2021/06/06 02:34:01;;;;;;;83.35;45.63;;;17.20;99.90;;;;;;5017935;28;20026;-75
2021/06/06 02:36:29;;;;;;;72.63;42.40;;;17.20;99.90;;;;;;5017638;28;20104;-75
2021/06/06 02:39:01;;;;;;;76.95;45.30;;;17.30;99.90;;;;;;5018998;28;20036;-75
2021/06/06 02:41:33;;;;;;;71.43;43.03;;;17.20;99.90;;;;;;5013517;28;20472;-74
2021/06/06 02:44:04;;;;;;;69.72;40.15;;;17.20;99.90;;;;;;5014763;28;20026;-73
2021/06/06 02:46:32;;;;;;;73.35;46.15;;;17.30;99.90;;;;;;5016892;28;20049;-73
2021/06/06 02:49:08;;;;;;;76.20;45.05;;;17.20;99.90;;;;;;5015477;28;20022;-72
2021/06/06 02:51:57;;;;;;;75.03;43.45;;;17.30;99.90;;;;;;5012573;28;20080;-73
2021/06/06 02:54:45;;;;;;;70.90;43.45;;;17.30;99.90;;;;;;5015234;28;20390;-73
2021/06/06 02:57:14;;;;;;;69.88;41.95;;;17.20;99.90;;;;;;5016378;28;20024;-72
2021/06/06 02:59:52;;;;;;;73.15;44.80;;;17.30;99.90;;;;;;5016420;28;20033;-72
2021/06/06 03:02:22;;;;;;;70.90;44.28;;;17.20;99.90;;;;;;5015308;28;20442;-73
2021/06/06 03:04:56;;;;;;;68.50;43.05;;;17.30;99.90;;;;;;5018393;28;20506;-73
2021/06/06 03:07:34;;;;;;;72.22;45.30;;;17.30;99.90;;;;;;5015834;28;20523;-73
2021/06/06 03:10:00;;;;;;;75.57;44.75;;;17.20;99.90;;;;;;5020147;28;20022;-72
2021/06/06 03:12:27;;;;;;;84.05;48.58;;;17.20;99.90;;;;;;5038230;28;20026;-75
2021/06/06 03:14:55;;;;;;;77.07;49.00;;;17.20;99.90;;;;;;5018559;28;20057;-76
2021/06/06 03:17:33;;;;;;;68.68;43.80;;;17.30;99.90;;;;;;5017099;28;20502;-75
2021/06/06 03:20:05;;;;;;;85.93;50.38;;;17.20;99.90;;;;;;5018205;28;20064;-75
2021/06/06 03:22:34;;;;;;;80.38;45.20;;;17.20;99.90;;;;;;5018592;28;20117;-74
2021/06/06 03:25:05;;;;;;;77.60;51.13;;;17.30;99.90;;;;;;5020655;28;20033;-74
2021/06/06 03:27:40;;;;;;;83.03;49.75;;;17.20;99.90;;;;;;5014640;28;20029;-75
2021/06/06 03:30:15;;;;;;;81.38;49.53;;;17.20;99.90;;;;;;5014396;28;20030;-75
2021/06/06 03:32:44;;;;;;;88.70;49.40;;;17.10;99.90;;;;;;5018864;28;20030;-75
2021/06/06 03:35:11;;;;;;;96.70;52.05;;;17.10;99.90;;;;;;5015816;28;20479;-75
2021/06/06 03:37:37;;;;;;;90.20;53.47;;;17.20;99.90;;;;;;5019976;28;20037;-75
2021/06/06 03:40:05;;;;;;;83.95;49.63;;;17.30;99.90;;;;;;5013881;28;20029;-74
2021/06/06 03:42:30;;;;;;;89.38;50.88;;;17.30;99.90;;;;;;5017387;28;20033;-74
2021/06/06 03:44:56;;;;;;;89.03;50.33;;;17.20;99.90;;;;;;5012878;28;20026;-73
2021/06/06 03:47:22;;;;;;;95.63;54.88;;;17.20;99.90;;;;;;5017050;28;20025;-74
2021/06/06 03:49:48;;;;;;;88.65;52.25;;;17.20;99.90;;;;;;5015325;28;20058;-75
2021/06/06 03:52:14;;;;;;;94.03;55.83;;;17.20;99.90;;;;;;5014701;28;20061;-74
2021/06/06 03:54:39;;;;;;;103.70;58.55;;;17.30;99.90;;;;;;5013411;28;20026;-75
2021/06/06 03:57:06;;;;;;;94.15;54.55;;;17.20;99.90;;;;;;5015567;28;20021;-75
2021/06/06 03:59:31;;;;;;;91.88;55.22;;;17.10;99.90;;;;;;5012806;28;20028;-74
2021/06/06 04:01:57;;;;;;;94.80;53.75;;;17.10;99.90;;;;;;5014036;28;20038;-73
2021/06/06 04:04:23;;;;;;;95.60;56.47;;;17.00;99.90;;;;;;5017159;28;20493;-72
2021/06/06 04:06:48;;;;;;;96.53;57.25;;;17.10;99.90;;;;;;5018459;28;20029;-73
2021/06/06 04:09:14;;;;;;;102.53;60.83;;;17.00;99.90;;;;;;5016634;28;20033;-74
2021/06/06 04:11:40;;;;;;;95.80;57.22;;;17.00;99.90;;;;;;5019204;28;20033;-74
2021/06/06 04:14:07;;;;;;;90.25;54.72;;;17.10;99.90;;;;;;5014362;28;20355;-74
2021/06/06 04:16:34;;;;;;;88.13;52.80;;;17.00;99.90;;;;;;5012372;28;20025;-73
2021/06/06 04:18:59;;;;;;;90.93;55.42;;;16.90;99.90;;;;;;5015725;28;20018;-74
2021/06/06 04:21:29;;;;;;;89.95;56.00;;;17.00;99.90;;;;;;5013542;28;20037;-74
2021/06/06 04:23:54;;;;;;;87.65;55.90;;;16.90;99.90;;;;;;5017739;28;20043;-73
2021/06/06 04:26:21;;;;;;;81.53;52.63;;;16.90;99.90;;;;;;5021529;28;20018;-75
2021/06/06 04:28:47;;;;;;;82.22;50.28;;;16.90;99.90;;;;;;5014951;28;20385;-74
2021/06/06 04:31:13;;;;;;;82.80;52.35;;;16.90;99.90;;;;;;5012679;28;20471;-74
2021/06/06 04:33:39;;;;;;;76.70;49.28;;;17.00;99.90;;;;;;5012252;28;20394;-73
2021/06/06 04:36:05;;;;;;;74.97;48.83;;;16.80;99.90;;;;;;5015686;28;20073;-74
2021/06/06 04:38:32;;;;;;;75.60;48.13;;;16.80;99.90;;;;;;5016811;28;20413;-74
2021/06/06 04:41:01;;;;;;;68.97;45.75;;;16.80;99.90;;;;;;5014633;28;20476;-72
2021/06/06 04:43:27;;;;;;;70.55;46.35;;;16.80;99.90;;;;;;5013261;28;20026;-74
2021/06/06 04:45:54;;;;;;;76.80;48.13;;;16.80;99.90;;;;;;5011830;28;20028;-75
2021/06/06 04:48:27;;;;;;;75.07;50.28;;;16.80;99.90;;;;;;5014807;28;20029;-74
2021/06/06 04:50:54;;;;;;;72.80;47.13;;;16.70;99.90;;;;;;5011292;28;20017;-77
2021/06/06 04:53:21;;;;;;;74.55;46.25;;;16.80;99.90;;;;;;5020250;28;20018;-74
2021/06/06 04:55:47;;;;;;;69.15;43.67;;;16.70;99.90;;;;;;5013681;28;20029;-74
2021/06/06 04:58:20;;;;;;;66.00;43.55;;;16.60;99.90;;;;;;5018583;28;20075;-74
2021/06/06 05:00:47;;;;;;;67.15;44.25;;;16.60;99.90;;;;;;5015471;28;20066;-74
2021/06/06 05:03:14;;;;;;;63.28;42.10;;;16.70;99.90;;;;;;5013968;28;20060;-74
2021/06/06 05:05:40;;;;;;;65.72;44.42;;;16.70;99.90;;;;;;5018499;28;20030;-74
2021/06/06 05:08:06;;;;;;;65.35;41.78;;;16.60;99.90;;;;;;5012431;28;20025;-74
2021/06/06 05:10:35;;;;;;;66.10;42.13;;;16.60;99.90;;;;;;5019011;28;20037;-74
2021/06/06 05:13:03;;;;;;;63.05;42.63;;;16.60;99.90;;;;;;5017227;28;20026;-74
2021/06/06 05:15:29;;;;;;;59.63;40.70;;;16.70;99.90;;;;;;5014244;28;20017;-74
2021/06/06 05:17:55;;;;;;;59.47;40.25;;;16.60;99.90;;;;;;5018560;28;20033;-73
2021/06/06 05:20:27;;;;;;;63.00;41.97;;;16.60;99.90;;;;;;5018912;28;20025;-75
2021/06/06 05:22:52;;;;;;;60.15;39.00;;;16.60;99.90;;;;;;5016434;28;20107;-75
2021/06/06 05:25:19;;;;;;;57.95;38.33;;;16.70;99.90;;;;;;5013504;28;20503;-74
2021/06/06 05:27:45;;;;;;;59.58;38.75;;;16.70;99.90;;;;;;5015819;28;20471;-74
2021/06/06 05:30:14;;;;;;;59.40;38.45;;;16.60;99.90;;;;;;5015208;28;20029;-74
2021/06/06 05:32:39;;;;;;;55.50;37.15;;;16.60;99.90;;;;;;5015341;28;20030;-74
2021/06/06 05:35:06;;;;;;;55.15;37.30;;;16.60;99.90;;;;;;5021392;28;20484;-74
2021/06/06 05:37:32;;;;;;;47.58;34.85;;;16.50;99.90;;;;;;5012563;28;20471;-74
2021/06/06 05:39:57;;;;;;;54.53;35.88;;;16.50;99.90;;;;;;5015244;28;20076;-72
2021/06/06 05:42:23;;;;;;;50.47;36.67;;;16.50;99.90;;;;;;5014101;28;20096;-73
2021/06/06 05:44:49;;;;;;;53.95;36.42;;;16.50;99.90;;;;;;5013561;28;20467;-71
2021/06/06 05:47:15;;;;;;;48.33;35.33;;;16.50;99.90;;;;;;5022269;28;20037;-72
2021/06/06 05:49:41;;;;;;;50.00;34.70;;;16.40;99.90;;;;;;5014180;28;20057;-71
2021/06/06 05:52:06;;;;;;;49.80;35.45;;;16.50;99.90;;;;;;5015146;28;20026;-74
2021/06/06 05:54:32;;;;;;;50.95;37.92;;;16.50;99.90;;;;;;5013665;28;20049;-73
2021/06/06 05:56:57;;;;;;;51.33;36.97;;;16.60;99.90;;;;;;5018144;28;20038;-73
2021/06/06 05:59:23;;;;;;;50.17;35.53;;;16.70;99.90;;;;;;5013075;28;20026;-73
2021/06/06 06:01:49;;;;;;;49.78;34.40;;;16.60;99.90;;;;;;5016089;28;20140;-73
2021/06/06 06:04:14;;;;;;;48.53;34.03;;;16.60;99.90;;;;;;5015438;28;20075;-73
2021/06/06 06:06:40;;;;;;;49.47;35.15;;;16.60;99.90;;;;;;5019305;28;20474;-73
2021/06/06 06:09:06;;;;;;;48.50;33.00;;;16.60;99.90;;;;;;5016861;28;20026;-73
2021/06/06 06:11:32;;;;;;;51.67;34.35;;;16.70;99.90;;;;;;5016010;28;20072;-73
2021/06/06 06:13:58;;;;;;;48.97;33.88;;;16.70;99.90;;;;;;5016832;28;20058;-73
2021/06/06 06:16:30;;;;;;;44.22;33.40;;;16.80;99.90;;;;;;5013571;28;20029;-73
2021/06/06 06:18:56;;;;;;;47.95;34.38;;;16.80;99.90;;;;;;5017589;28;20084;-72
2021/06/06 06:21:23;;;;;;;49.67;35.75;;;16.80;99.90;;;;;;5014010;28;20065;-72
2021/06/06 06:23:49;;;;;;;42.72;30.35;;;16.80;99.90;;;;;;5015700;28;20072;-72
2021/06/06 06:26:14;;;;;;;43.80;30.33;;;16.70;99.90;;;;;;5020058;28;20499;-71
2021/06/06 06:28:42;;;;;;;45.40;31.58;;;16.80;99.90;;;;;;5020766;28;20101;-71
2021/06/06 06:31:08;;;;;;;42.28;31.25;;;16.90;99.90;;;;;;5020257;28;20390;-73
2021/06/06 06:33:34;;;;;;;45.72;32.72;;;16.90;99.90;;;;;;5019959;28;20030;-73
2021/06/06 06:35:59;;;;;;;42.60;30.55;;;17.00;99.90;;;;;;5016421;28;20075;-73
2021/06/06 06:38:26;;;;;;;42.03;30.13;;;17.00;99.90;;;;;;5026758;28;20017;-73
2021/06/06 06:40:52;;;;;;;41.40;29.10;;;17.00;99.90;;;;;;5017681;28;20046;-74
2021/06/06 06:43:18;;;;;;;43.03;30.00;;;16.90;99.90;;;;;;5014833;28;20219;-74
2021/06/06 06:45:44;;;;;;;40.65;29.45;;;16.90;99.90;;;;;;5022555;28;20033;-73
2021/06/06 06:48:17;;;;;;;44.03;28.83;;;16.90;99.90;;;;;;5017846;28;20092;-72
2021/06/06 06:50:43;;;;;;;39.55;28.38;;;17.00;99.90;;;;;;5015168;28;20490;-72
2021/06/06 06:53:10;;;;;;;39.92;28.63;;;17.00;99.90;;;;;;5018319;28;20017;-72
2021/06/06 06:55:36;;;;;;;39.58;27.88;;;17.00;99.90;;;;;;5017485;28;20026;-72
2021/06/06 06:58:03;;;;;;;40.78;28.80;;;17.00;99.90;;;;;;5018306;28;20061;-73
2021/06/06 07:00:35;;;;;;;38.47;26.02;;;17.00;99.90;;;;;;5018400;28;20080;-72
2021/06/06 07:03:01;;;;;;;51.13;26.87;;;17.00;99.90;;;;;;5017643;28;20482;-72
2021/06/06 07:05:27;;;;;;;35.80;25.95;;;17.00;99.90;;;;;;5022387;28;20260;-73
2021/06/06 07:07:54;;;;;;;41.40;27.13;;;17.00;99.90;;;;;;5021144;28;20544;-73
2021/06/06 07:10:23;;;;;;;37.22;24.92;;;17.00;99.90;;;;;;5020778;28;20080;-72
2021/06/06 07:12:49;;;;;;;37.58;26.80;;;17.00;99.90;;;;;;5020427;28;20084;-72
2021/06/06 07:15:15;;;;;;;37.50;26.92;;;17.10;99.90;;;;;;5020448;28;20022;-73
2021/06/06 07:17:41;;;;;;;42.08;27.92;;;17.10;99.90;;;;;;5027159;28;20060;-72
2021/06/06 07:20:11;;;;;;;35.25;26.75;;;17.10;99.90;;;;;;5015229;28;20057;-72
2021/06/06 07:22:37;;;;;;;33.55;24.80;;;17.10;99.90;;;;;;5018187;28;20068;-73
2021/06/06 07:25:05;;;;;;;39.72;26.38;;;17.20;99.90;;;;;;5016545;28;20080;-73
2021/06/06 07:27:32;;;;;;;36.65;26.67;;;17.20;99.90;;;;;;5020278;28;20029;-73
2021/06/06 07:29:59;;;;;;;32.45;24.42;;;17.10;99.90;;;;;;5016057;28;20108;-73
2021/06/06 07:32:25;;;;;;;35.88;24.60;;;17.20;99.90;;;;;;5019394;28;20565;-73
2021/06/06 07:34:52;;;;;;;29.25;22.77;;;17.20;99.90;;;;;;5019680;28;20475;-73
2021/06/06 07:37:18;;;;;;;33.60;23.52;;;17.10;99.90;;;;;;5015494;28;20041;-71
2021/06/06 07:39:44;;;;;;;35.53;23.67;;;17.20;99.90;;;;;;5018263;28;20033;-72
2021/06/06 07:42:11;;;;;;;35.47;23.85;;;17.30;99.90;;;;;;5013705;28;20038;-74
2021/06/06 07:44:37;;;;;;;34.67;24.33;;;17.40;99.90;;;;;;5014236;28;20033;-73
2021/06/06 07:47:06;;;;;;;34.78;23.92;;;17.40;99.90;;;;;;5012921;28;20034;-73
2021/06/06 07:49:32;;;;;;;38.50;24.15;;;17.40;99.90;;;;;;5015488;28;20382;-75
2021/06/06 07:51:57;;;;;;;31.98;22.95;;;17.40;99.90;;;;;;5019867;28;20066;-73
2021/06/06 07:54:23;;;;;;;28.55;21.73;;;17.40;99.90;;;;;;5014886;28;20105;-73
2021/06/06 07:56:49;;;;;;;32.20;22.95;;;17.40;99.90;;;;;;5017389;28;20022;-73
2021/06/06 07:59:14;;;;;;;31.95;22.77;;;17.50;99.90;;;;;;5015667;28;20025;-73
2021/06/06 08:01:41;;;;;;;32.60;22.52;;;17.50;99.90;;;;;;5019404;28;20112;-73
2021/06/06 08:04:07;;;;;;;28.98;21.67;;;17.50;99.90;;;;;;5016774;28;20022;-73
2021/06/06 08:06:33;;;;;;;28.17;20.15;;;17.50;99.90;;;;;;5014669;28;20034;-73
2021/06/06 08:08:58;;;;;;;29.48;21.77;;;17.50;99.90;;;;;;5021527;28;20033;-73
2021/06/06 08:11:24;;;;;;;32.40;22.92;;;17.60;99.90;;;;;;5014100;28;20022;-71
2021/06/06 08:13:51;;;;;;;33.30;21.67;;;17.70;99.90;;;;;;5016424;28;20042;-73
2021/06/06 08:16:18;;;;;;;30.58;23.00;;;17.70;99.90;;;;;;5019208;28;20033;-74
2021/06/06 08:18:44;;;;;;;29.92;22.23;;;17.80;99.90;;;;;;5017246;28;20128;-73
2021/06/06 08:21:17;;;;;;;30.38;23.08;;;17.80;99.90;;;;;;5017729;28;20026;-73
2021/06/06 08:23:42;;;;;;;;;;;17.70;99.90;;;;;;5018996;28;20506;-71
2021/06/06 08:26:09;;;;;;;28.65;21.05;;;17.80;99.90;;;;;;5017475;28;19967;-73
2021/06/06 08:28:35;;;;;;;28.67;20.77;;;17.90;99.90;;;;;;5017778;28;20034;-73
2021/06/06 08:31:15;;;;;;;28.42;22.85;;;17.80;99.90;;;;;;5016906;28;20489;-73
2021/06/06 08:33:42;;;;;;;31.35;21.88;;;17.80;99.90;;;;;;5017278;28;20116;-73
2021/06/06 08:36:12;;;;;;;32.47;20.80;;;17.80;99.90;;;;;;5015467;28;20640;-73
2021/06/06 08:38:38;;;;;;;30.42;21.33;;;17.90;99.90;;;;;;5016948;28;20104;-76
2021/06/06 08:41:27;;;;;;;28.98;21.35;;;17.90;99.90;;;;;;5021232;28;20133;-76
2021/06/06 08:44:03;;;;;;;24.73;19.83;;;18.00;99.90;;;;;;5018753;28;20029;-73
2021/06/06 08:46:34;;;;;;;26.42;20.13;;;18.00;99.90;;;;;;5020131;28;20029;-73
2021/06/06 08:49:00;;;;;;;25.17;18.58;;;18.10;99.90;;;;;;5016549;28;20462;-73
2021/06/06 08:51:39;;;;;;;28.27;20.75;;;18.10;99.90;;;;;;5016109;28;20041;-73
2021/06/06 08:54:23;;;;;;;25.95;20.40;;;18.20;99.90;;;;;;5018645;28;20018;-73
2021/06/06 08:57:13;;;;;;;29.98;20.17;;;18.20;99.90;;;;;;5018253;28;20041;-75
2021/06/06 08:59:45;;;;;;;27.17;19.48;;;18.20;99.90;;;;;;5016228;28;20411;-74
2021/06/06 09:02:20;;;;;;;25.40;19.80;;;18.20;99.90;;;;;;5019458;28;20033;-74
2021/06/06 09:04:45;;;;;;;25.40;19.00;;;18.30;99.90;;;;;;5017163;28;20026;-73
2021/06/06 09:07:12;;;;;;;29.30;18.02;;;18.30;99.90;;;;;;5018877;28;20351;-73
2021/06/06 09:09:47;;;;;;;28.40;18.77;;;18.30;99.90;;;;;;5013588;28;20026;-73
2021/06/06 09:12:20;;;;;;;25.65;18.90;;;18.40;99.90;;;;;;5016418;28;20545;-72
2021/06/06 09:14:48;;;;;;;25.77;19.70;;;18.40;99.90;;;;;;5014497;28;20026;-74
2021/06/06 09:17:17;;;;;;;22.58;18.27;;;18.50;99.90;;;;;;5014365;28;20037;-74
2021/06/06 09:19:52;;;;;;;25.10;18.60;;;18.60;99.90;;;;;;5018712;28;20057;-72
2021/06/06 09:22:32;;;;;;;25.38;18.42;;;18.60;99.90;;;;;;5013717;28;20030;-73
2021/06/06 09:25:09;;;;;;;22.98;17.45;;;18.60;99.90;;;;;;5022606;28;20029;-74
2021/06/06 09:27:34;;;;;;;25.38;19.50;;;18.70;99.90;;;;;;5013445;28;20550;-70
2021/06/06 09:30:06;;;;;;;21.95;16.60;;;18.60;99.90;;;;;;5019205;28;20113;-69
2021/06/06 09:32:33;;;;;;;22.77;17.08;;;18.80;99.90;;;;;;5015283;28;20483;-71
2021/06/06 09:35:08;;;;;;;23.17;17.27;;;18.70;99.90;;;;;;5017413;28;20034;-71
2021/06/06 09:37:42;;;;;;;26.77;18.85;;;18.70;99.90;;;;;;5020406;28;20021;-69
2021/06/06 09:40:12;;;;;;;24.55;17.77;;;18.80;99.90;;;;;;5017852;28;20141;-74
2021/06/06 09:42:47;;;;;;;26.27;17.45;;;18.80;99.90;;;;;;5014953;28;20494;-74
2021/06/06 09:45:19;;;;;;;23.98;16.95;;;18.80;99.90;;;;;;5016968;28;20030;-69
2021/06/06 09:48:00;;;;;;;24.33;17.65;;;18.90;99.90;;;;;;5017577;28;20033;-73
2021/06/06 09:50:34;;;;;;;20.10;16.02;;;19.00;99.90;;;;;;5013292;28;20026;-74
2021/06/06 09:53:19;;;;;;;24.33;17.33;;;19.00;99.90;;;;;;5016928;28;20366;-73
2021/06/06 09:55:46;;;;;;;25.65;18.88;;;19.00;99.90;;;;;;5015887;28;20033;-73
2021/06/06 09:58:29;;;;;;;22.63;16.35;;;19.20;99.90;;;;;;5014443;28;20053;-76
2021/06/06 10:00:57;;;;;;;;;;;19.40;99.90;;;;;;5013495;28;20165;-74
2021/06/06 10:03:31;;;;;;;21.50;16.48;;;19.40;99.90;;;;;;5014756;28;19917;-71
2021/06/06 10:06:23;;;;;;;22.38;17.38;;;19.60;99.90;;;;;;5018274;28;20490;-71
2021/06/06 10:09:07;;;;;;;22.90;17.08;;;19.70;99.90;;;;;;5021068;28;20026;-72
2021/06/06 10:11:39;;;;;;;21.20;15.20;;;19.80;99.90;;;;;;5018494;28;20045;-72
2021/06/06 10:14:06;;;;;;;19.30;16.08;;;19.90;99.90;;;;;;5019882;28;20101;-72
2021/06/06 10:16:36;;;;;;;21.58;15.55;;;20.00;99.90;;;;;;5016918;28;20130;-73
2021/06/06 10:19:10;;;;;;;18.33;15.82;;;20.00;99.90;;;;;;5015239;28;20034;-72
2021/06/06 10:21:37;;;;;;;20.73;16.15;;;20.20;99.90;;;;;;5017160;28;20459;-73
2021/06/06 10:24:18;;;;;;;19.48;14.77;;;20.30;99.90;;;;;;5025509;28;20048;-74
2021/06/06 10:26:52;;;;;;;21.85;15.50;;;20.30;99.90;;;;;;5016838;28;20030;-75
2021/06/06 10:29:44;;;;;;;18.92;15.10;;;20.40;99.90;;;;;;5022186;28;20018;-73
2021/06/06 10:32:15;;;;;;;19.50;14.10;;;20.50;99.90;;;;;;5016265;28;20096;-74
2021/06/06 10:35:05;;;;;;;20.52;14.48;;;20.50;99.90;;;;;;5023597;28;20025;-73
2021/06/06 10:37:31;;;;;;;18.35;14.98;;;20.50;99.90;;;;;;5017112;28;20102;-72
2021/06/06 10:40:19;;;;;;;18.30;15.05;;;20.40;99.90;;;;;;5015895;28;20100;-73
2021/06/06 10:42:54;;;;;;;17.45;14.13;;;20.50;99.90;;;;;;5018610;28;20077;-74
2021/06/06 10:45:44;;;;;;;15.68;13.25;;;20.70;99.90;;;;;;5018937;28;20591;-73
2021/06/06 10:48:32;;;;;;;18.65;12.27;;;20.90;99.90;;;;;;5021068;28;20029;-72
2021/06/06 10:51:30;;;;;;;15.18;13.57;;;21.00;99.90;;;;;;5017907;28;20072;-72
2021/06/06 10:53:58;;;;;;;16.30;14.50;;;21.10;99.90;;;;;;4991214;28;20092;-71
2021/06/06 10:56:34;;;;;;;17.55;12.93;;;21.20;99.90;;;;;;5017097;28;20026;-72
2021/06/06 10:59:10;;;;;;;15.68;12.40;;;21.20;99.90;;;;;;5021707;28;20030;-72
2021/06/06 11:01:42;;;;;;;17.27;13.52;;;21.00;99.90;;;;;;5023238;28;20056;-71
2021/06/06 11:04:15;;;;;;;15.87;10.77;;;21.10;99.90;;;;;;5022789;28;20053;-72
2021/06/06 11:06:46;;;;;;;13.90;11.40;;;21.20;99.90;;;;;;5016997;28;20462;-72
2021/06/06 11:09:27;;;;;;;12.40;10.40;;;21.20;99.90;;;;;;5014101;28;20670;-71
2021/06/06 11:12:01;;;;;;;12.93;10.95;;;21.20;99.90;;;;;;5020564;28;20798;-73
2021/06/06 11:14:38;;;;;;;10.27;9.25;;;21.20;99.90;;;;;;5016213;28;20081;-72
2021/06/06 11:17:33;;;;;;;12.50;10.05;;;21.30;99.90;;;;;;5013993;28;20021;-72
2021/06/06 11:20:30;;;;;;;11.25;10.15;;;21.40;99.90;;;;;;5014425;28;20108;-72
2021/06/06 11:22:57;;;;;;;10.73;8.40;;;21.40;99.90;;;;;;5015227;28;20088;-72
2021/06/06 11:25:46;;;;;;;9.10;8.20;;;21.30;99.90;;;;;;5014720;28;20104;-72
2021/06/06 11:28:37;;;;;;;9.77;8.10;;;21.30;99.90;;;;;;5022220;28;20075;-71
2021/06/06 11:31:19;;;;;;;10.00;8.90;;;21.30;99.90;;;;;;5015768;28;20490;-71
2021/06/06 11:33:59;;;;;;;7.82;7.05;;;21.20;99.90;;;;;;5012828;28;20430;-73
2021/06/06 11:36:35;;;;;;;8.20;6.97;;;21.20;99.90;;;;;;5014130;28;20034;-72
2021/06/06 11:39:33;;;;;;;10.63;6.97;;;21.30;99.90;;;;;;5014043;28;20045;-71
2021/06/06 11:42:01;;;;;;;7.22;6.53;;;21.40;99.90;;;;;;5018481;28;20139;-71
2021/06/06 11:44:43;;;;;;;8.50;7.65;;;21.50;99.90;;;;;;5019173;28;20565;-71
2021/06/06 11:47:17;;;;;;;8.43;6.95;;;21.60;99.90;;;;;;5020260;28;20033;-72
2021/06/06 11:50:03;;;;;;;6.78;6.07;;;21.50;99.90;;;;;;5016908;28;20021;-71
2021/06/06 11:52:50;;;;;;;7.68;6.90;;;21.60;99.90;;;;;;5014716;28;20037;-71
2021/06/06 11:55:25;;;;;;;7.35;6.53;;;21.60;99.90;;;;;;5016237;28;20033;-71
2021/06/06 11:58:05;;;;;;;9.82;7.03;;;21.60;99.90;;;;;;5022904;28;20033;-71
2021/06/06 12:00:51;;;;;;;8.73;6.85;;;21.60;99.90;;;;;;5015389;28;20030;-72
2021/06/06 12:03:35;;;;;;;8.50;6.40;;;21.60;99.90;;;;;;5016404;28;20065;-71
2021/06/06 12:06:26;;;;;;;7.95;6.30;;;21.50;99.90;;;;;;5018305;28;20402;-72
2021/06/06 12:09:24;;;;;;;7.32;6.57;;;21.40;99.90;;;;;;5011544;28;20029;-71
2021/06/06 12:11:51;;;;;;;7.63;6.97;;;21.40;99.90;;;;;;5014063;28;20131;-72
2021/06/06 12:14:16;;;;;;;9.35;7.47;;;21.40;99.90;;;;;;5013692;28;20127;-72
2021/06/06 12:16:58;;;;;;;7.65;6.85;;;21.50;99.90;;;;;;5010276;28;20116;-72
2021/06/06 12:19:46;;;;;;;9.15;7.20;;;21.50;99.90;;;;;;5011403;28;20050;-71
2021/06/06 12:22:24;;;;;;;8.77;7.82;;;21.50;99.90;;;;;;5015691;28;20332;-71
2021/06/06 12:25:11;;;;;;;8.52;7.40;;;21.50;99.90;;;;;;5015454;28;20025;-72
2021/06/06 12:27:51;;;;;;;7.95;7.15;;;21.50;99.90;;;;;;5019786;28;20104;-73
2021/06/06 12:30:25;;;;;;;9.10;6.97;;;21.30;99.90;;;;;;5016275;28;20029;-72
2021/06/06 12:33:11;;;;;;;8.90;7.80;;;21.30;99.90;;;;;;5019449;28;20023;-72
2021/06/06 12:35:46;;;;;;;8.70;7.72;;;21.40;99.90;;;;;;5013297;28;20040;-72
2021/06/06 12:38:12;;;;;;;10.40;8.45;;;21.30;99.90;;;;;;5015637;28;20490;-73
2021/06/06 12:40:39;;;;;;;8.18;7.38;;;21.20;99.90;;;;;;5011923;28;20506;-73
2021/06/06 12:43:07;;;;;;;9.98;8.38;;;21.20;99.90;;;;;;5017389;28;20041;-73
2021/06/06 12:45:38;;;;;;;7.13;6.43;;;21.30;99.90;;;;;;5015896;28;20030;-75
2021/06/06 12:48:12;;;;;;;7.17;6.50;;;21.30;99.90;;;;;;5014064;28;20022;-75
2021/06/06 12:50:41;;;;;;;7.95;7.18;;;21.30;99.90;;;;;;5018185;28;20105;-76
2021/06/06 12:53:23;;;;;;;9.93;7.47;;;21.30;99.90;;;;;;5018918;28;20018;-73